createdAt,value
2022-12-08T06:00:17.421Z,49.97
2022-12-08T06:03:02.801Z,50.00
2022-12-08T06:05:48.699Z,50.41
2022-12-08T06:08:33.904Z,50.31
2022-12-08T06:11:25.129Z,50.56
2022-12-08T06:14:12.308Z,50.36
2022-12-08T06:16:57.466Z,50.73
2022-12-08T06:19:42.627Z,50.27
2022-12-08T06:22:29.025Z,50.45
2022-12-08T06:25:14.141Z,50.47
2022-12-08T06:27:59.417Z,50.22
2022-12-08T06:30:44.594Z,50.27
2022-12-08T06:33:29.994Z,50.34
2022-12-08T06:36:17.526Z,50.40
2022-12-08T06:39:03.384Z,50.50
2022-12-08T06:42:07.340Z,50.66
2022-12-08T06:44:52.918Z,50.28
2022-12-08T06:47:37.901Z,50.52
2022-12-08T06:50:23.394Z,50.14
2022-12-08T06:53:08.705Z,50.29
2022-12-08T06:56:01.325Z,50.62
2022-12-08T06:58:52.079Z,50.26
2022-12-08T07:01:38.251Z,50.69
2022-12-08T07:04:23.702Z,50.42
2022-12-08T07:07:09.297Z,50.82
2022-12-08T07:09:54.457Z,51.17
2022-12-08T07:12:39.933Z,50.90
2022-12-08T07:15:25.373Z,51.15
2022-12-08T07:18:10.992Z,51.07
2022-12-08T07:20:56.453Z,51.30
2022-12-08T07:23:45.464Z,51.46
2022-12-08T07:26:31.100Z,51.49
2022-12-08T07:29:19.303Z,51.23
2022-12-08T07:32:08.305Z,51.49
2022-12-08T07:34:54.072Z,51.33
2022-12-08T07:37:39.320Z,51.59
2022-12-08T07:40:24.833Z,52.23
2022-12-08T07:43:10.082Z,51.92
2022-12-08T07:45:55.545Z,51.75
2022-12-08T07:48:42.288Z,52.10
2022-12-08T07:51:27.453Z,51.81
2022-12-08T07:54:13.458Z,51.62
2022-12-08T07:56:58.973Z,52.04
2022-12-08T07:59:44.066Z,51.63
2022-12-08T08:02:29.713Z,51.72
2022-12-08T08:05:15.224Z,51.53
2022-12-08T08:08:00.773Z,51.25
2022-12-08T08:10:47.328Z,51.59
2022-12-08T08:13:32.326Z,51.29
2022-12-08T08:16:18.839Z,50.95
2022-12-08T08:19:36.893Z,50.86
2022-12-08T08:22:22.116Z,50.78
2022-12-08T08:25:07.553Z,50.82
2022-12-08T08:29:32.991Z,50.28
2022-12-08T08:31:59.872Z,50.26
2022-12-08T08:34:26.617Z,50.31
2022-12-08T08:49:04.779Z,40.74
2022-12-08T08:54:15.897Z,42.89
2022-12-08T08:56:42.479Z,43.38
2022-12-08T08:59:09.890Z,43.91
2022-12-08T09:01:36.888Z,44.04
2022-12-08T09:08:08.392Z,41.97
2022-12-08T09:10:35.197Z,41.57
2022-12-08T09:13:02.119Z,41.14
2022-12-08T09:15:29.306Z,41.66
2022-12-08T09:17:55.967Z,41.55
2022-12-08T09:20:22.675Z,42.03
2022-12-08T09:22:49.385Z,42.35
2022-12-08T09:25:16.128Z,42.47
2022-12-08T09:27:42.882Z,42.54
2022-12-08T09:30:09.894Z,43.08
2022-12-08T09:32:36.439Z,43.13
2022-12-08T09:35:03.411Z,43.29
2022-12-08T09:37:30.195Z,43.66
2022-12-08T09:39:57.121Z,43.86
2022-12-08T09:42:49.655Z,43.58
2022-12-08T09:45:18.287Z,43.93
2022-12-08T09:48:04.358Z,43.97
2022-12-08T09:50:56.956Z,43.95
2022-12-08T09:53:30.626Z,44.03
2022-12-08T09:56:05.658Z,44.28
2022-12-08T09:58:53.397Z,44.31
2022-12-08T10:01:22.334Z,44.42
2022-12-08T10:03:49.670Z,44.68
2022-12-08T10:06:16.373Z,44.64
2022-12-08T10:09:12.501Z,44.58
2022-12-08T10:11:59.053Z,45.08
2022-12-08T10:14:45.190Z,45.10
2022-12-08T10:17:27.180Z,45.28
2022-12-08T10:20:15.755Z,44.84
2022-12-08T10:22:44.873Z,44.89
2022-12-08T10:25:28.641Z,44.90
2022-12-08T10:27:55.331Z,45.06
2022-12-08T10:30:22.408Z,45.58
2022-12-08T10:32:52.212Z,45.34
2022-12-08T10:35:21.577Z,45.16
2022-12-08T10:38:02.951Z,45.09
2022-12-08T10:40:42.115Z,45.28
2022-12-08T10:43:17.570Z,45.24
2022-12-08T10:45:45.151Z,44.91
2022-12-08T10:48:31.342Z,45.00
2022-12-08T10:50:59.504Z,44.66
2022-12-08T10:53:28.134Z,44.77
2022-12-08T10:56:03.896Z,44.31
2022-12-08T10:58:40.926Z,44.41
2022-12-08T11:01:15.537Z,44.26
2022-12-08T11:03:58.937Z,44.20
2022-12-08T11:08:54.380Z,46.81
2022-12-08T11:11:28.990Z,47.81
2022-12-08T11:13:56.554Z,47.89
2022-12-08T11:16:23.725Z,47.82
2022-12-08T11:18:57.154Z,48.04
2022-12-08T11:21:36.140Z,47.76
2022-12-08T11:24:14.873Z,47.04
2022-12-08T11:26:50.102Z,46.48
2022-12-08T11:29:17.582Z,46.64
2022-12-08T11:31:52.472Z,45.96
2022-12-08T11:34:28.814Z,45.91
2022-12-08T11:36:56.384Z,45.31
2022-12-08T11:39:27.309Z,45.13
2022-12-08T11:41:56.397Z,45.26
2022-12-08T11:44:32.691Z,44.89
2022-12-08T11:47:05.029Z,44.34
2022-12-08T11:49:36.772Z,44.43
2022-12-08T11:52:13.146Z,44.30
2022-12-08T11:54:49.852Z,44.08
2022-12-08T11:57:20.703Z,43.97
2022-12-08T11:59:56.165Z,43.69
2022-12-08T12:02:30.046Z,43.40
2022-12-08T12:05:09.084Z,43.80
2022-12-08T12:07:47.659Z,43.59
2022-12-08T12:10:26.330Z,43.15
2022-12-08T12:13:04.849Z,43.07
2022-12-08T12:16:13.845Z,43.20
2022-12-08T12:19:06.840Z,42.88
2022-12-08T12:21:39.398Z,42.84
2022-12-08T12:24:10.323Z,42.94
2022-12-08T12:26:54.846Z,43.02
2022-12-08T12:29:24.433Z,42.86
2022-12-08T12:31:59.300Z,42.52
2022-12-08T12:34:30.765Z,42.36
2022-12-08T12:37:05.707Z,42.88
2022-12-08T12:39:45.890Z,42.70
2022-12-08T12:42:35.001Z,42.29
2022-12-08T12:45:16.962Z,42.86
2022-12-08T12:47:57.338Z,42.73
2022-12-08T12:50:41.702Z,42.80
2022-12-08T12:53:17.849Z,42.97
2022-12-08T13:04:37.722Z,39.96
2022-12-08T13:07:05.124Z,41.63
2022-12-08T13:09:38.130Z,42.96
2022-12-08T13:12:11.491Z,44.85
2022-12-08T13:14:44.474Z,47.10
2022-12-08T13:17:14.160Z,48.42
2022-12-08T13:19:44.368Z,49.69
2022-12-08T13:22:24.272Z,50.94
2022-12-08T13:24:51.051Z,51.83
2022-12-08T13:27:22.231Z,53.68
2022-12-08T13:30:02.591Z,54.96
2022-12-08T13:32:39.008Z,56.26
2022-12-08T13:35:12.007Z,55.70
2022-12-08T13:37:54.931Z,56.31
2022-12-08T13:40:25.346Z,57.15
2022-12-08T13:43:01.809Z,57.52
2022-12-08T13:46:20.121Z,58.16
2022-12-08T13:48:35.587Z,59.14
2022-12-08T13:53:28.418Z,60.00
2022-12-08T13:57:17.142Z,60.29
2022-12-08T14:02:34.370Z,61.11
2022-12-08T14:05:18.958Z,61.37
2022-12-08T14:07:43.021Z,61.59
2022-12-08T14:10:17.258Z,62.04
2022-12-08T14:12:48.379Z,62.49
2022-12-08T14:15:17.262Z,62.67
2022-12-08T14:17:55.923Z,63.47
2022-12-08T14:20:31.448Z,63.33
2022-12-08T14:23:02.240Z,63.49
2022-12-08T14:25:29.905Z,63.82
2022-12-08T14:28:01.346Z,64.20
2022-12-08T14:30:32.763Z,64.33
2022-12-08T14:33:01.145Z,64.60
2022-12-08T14:35:31.214Z,64.66
2022-12-08T14:38:03.139Z,65.02
2022-12-08T14:43:18.167Z,65.52
2022-12-08T14:45:44.942Z,65.77
2022-12-08T14:48:26.941Z,65.74
2022-12-08T14:51:12.275Z,66.37
2022-12-08T14:53:54.551Z,66.31
2022-12-08T14:56:36.323Z,66.23
2022-12-08T14:59:17.339Z,66.60
2022-12-08T15:01:45.081Z,66.60
2022-12-08T15:04:12.570Z,66.98
2022-12-08T15:06:55.744Z,67.27
2022-12-08T15:09:33.081Z,67.53
2022-12-08T15:12:13.112Z,67.56
2022-12-08T15:14:57.261Z,67.66
2022-12-08T15:20:24.102Z,67.92
2022-12-08T15:22:51.564Z,67.92
2022-12-08T15:25:18.572Z,67.81
2022-12-08T15:27:50.464Z,68.11
2022-12-08T15:30:17.857Z,68.71
2022-12-08T15:32:44.727Z,68.48
2022-12-08T15:35:17.796Z,69.15
2022-12-08T15:37:47.250Z,68.76
2022-12-08T15:42:50.027Z,73.01
2022-12-08T15:45:17.412Z,71.37
2022-12-08T15:47:45.794Z,70.19
2022-12-08T15:50:18.967Z,70.21
2022-12-08T15:52:46.175Z,69.90
2022-12-08T15:55:16.427Z,70.57
2022-12-08T16:00:50.695Z,70.06
2022-12-08T16:03:27.878Z,69.99
2022-12-08T16:05:50.060Z,70.20
2022-12-08T16:12:03.782Z,70.45
2022-12-08T16:14:19.902Z,70.08
2022-12-08T16:16:40.198Z,70.45
2022-12-08T16:19:09.340Z,70.71
2022-12-08T16:24:19.599Z,70.54
2022-12-08T16:27:58.687Z,70.77
2022-12-08T16:29:20.913Z,70.88
2022-12-08T16:31:47.889Z,71.37
2022-12-08T16:34:14.621Z,71.10
2022-12-08T16:36:41.966Z,70.95
2022-12-08T16:39:12.991Z,71.13
2022-12-08T16:41:50.075Z,71.29
2022-12-08T16:44:16.850Z,71.43
2022-12-08T16:46:44.038Z,71.25
2022-12-08T16:49:10.966Z,71.20
2022-12-08T16:51:39.095Z,71.58
2022-12-08T16:54:09.448Z,71.22
2022-12-08T16:56:36.203Z,71.58
2022-12-08T16:59:03.066Z,71.37
2022-12-08T17:01:29.893Z,71.34
2022-12-08T17:04:29.208Z,71.63
2022-12-08T17:06:37.808Z,71.73
2022-12-08T17:09:08.506Z,71.88
2022-12-08T17:14:15.492Z,71.64
2022-12-08T17:16:44.430Z,71.72
2022-12-08T17:19:13.221Z,72.00
2022-12-08T17:21:41.669Z,72.10
2022-12-08T17:24:08.838Z,71.86
2022-12-08T17:26:37.005Z,71.82
2022-12-08T17:29:04.804Z,71.97
2022-12-08T17:31:36.043Z,72.21
2022-12-08T17:36:44.130Z,72.03
2022-12-08T17:39:18.360Z,72.30
2022-12-08T17:41:46.257Z,72.35
2022-12-08T17:44:17.972Z,72.60
2022-12-08T17:46:52.082Z,72.40
2022-12-08T17:49:24.667Z,72.33
2022-12-08T17:51:55.096Z,72.43
2022-12-08T17:54:22.028Z,72.22
2022-12-08T17:56:48.898Z,72.51
2022-12-08T17:59:15.969Z,72.26
2022-12-08T18:01:43.133Z,72.71
2022-12-08T18:04:12.718Z,72.22
2022-12-08T18:06:40.000Z,72.43
2022-12-08T18:09:10.747Z,72.58
2022-12-08T18:11:38.072Z,72.54
2022-12-08T18:14:11.610Z,72.65
2022-12-08T18:16:40.954Z,72.35
2022-12-08T18:19:10.429Z,72.44
2022-12-08T18:21:37.721Z,72.66
2022-12-08T18:24:09.568Z,72.73
2022-12-08T18:26:36.416Z,72.92
2022-12-08T18:29:03.782Z,72.74
2022-12-08T18:31:33.199Z,72.69
2022-12-08T18:34:02.076Z,72.93
2022-12-08T18:36:28.709Z,72.83
2022-12-08T18:38:55.634Z,72.74
2022-12-08T18:43:55.353Z,72.82
2022-12-08T18:48:58.322Z,73.16
2022-12-08T18:51:25.295Z,72.77
2022-12-08T18:53:58.726Z,73.03
2022-12-08T18:56:31.995Z,72.77
2022-12-08T18:59:03.909Z,73.08
2022-12-08T19:01:36.328Z,73.35
2022-12-08T19:06:48.384Z,73.34
2022-12-08T19:09:16.724Z,73.12
2022-12-08T19:11:44.090Z,73.42
2022-12-08T19:14:14.550Z,73.36
2022-12-08T19:16:41.356Z,73.13
2022-12-08T19:19:09.209Z,73.22
2022-12-08T19:21:40.203Z,73.13
2022-12-08T19:24:11.449Z,73.20
2022-12-08T19:26:39.367Z,73.49
2022-12-08T19:29:06.511Z,73.35
2022-12-08T19:31:33.317Z,73.76
2022-12-08T19:34:00.317Z,73.78
2022-12-08T19:36:27.943Z,73.14
2022-12-08T19:39:07.500Z,73.42
2022-12-08T19:41:49.320Z,73.41
2022-12-08T19:44:32.424Z,73.48
2022-12-08T19:47:02.500Z,73.48
2022-12-08T19:49:29.545Z,73.50
2022-12-08T19:51:56.625Z,73.51
2022-12-08T19:54:23.572Z,73.64
2022-12-08T19:59:19.501Z,73.71
2022-12-08T20:01:48.221Z,73.97
2022-12-08T20:04:15.999Z,73.60
2022-12-08T20:06:45.852Z,73.67
2022-12-08T20:09:15.737Z,73.44
2022-12-08T20:11:42.566Z,73.87
2022-12-08T20:14:09.558Z,73.59
2022-12-08T20:16:42.430Z,73.60
2022-12-08T20:19:09.723Z,73.72
2022-12-08T20:21:40.408Z,73.66
2022-12-08T20:24:07.378Z,73.68
2022-12-08T20:26:34.319Z,73.65
2022-12-08T20:29:04.443Z,73.69
2022-12-08T20:31:34.766Z,73.70
2022-12-08T20:34:04.694Z,73.93
2022-12-08T20:36:31.756Z,73.99
2022-12-08T20:38:58.554Z,74.22
2022-12-08T20:41:26.811Z,73.84
2022-12-08T20:43:54.277Z,73.63
2022-12-08T20:46:21.732Z,73.89
2022-12-08T20:48:48.892Z,73.87
2022-12-08T20:51:20.042Z,73.96
2022-12-08T20:53:49.006Z,73.87
2022-12-08T20:56:21.020Z,74.27
2022-12-08T20:58:50.680Z,74.05
2022-12-08T21:01:20.775Z,73.75
2022-12-08T21:03:49.208Z,74.11
2022-12-08T21:06:24.541Z,74.31
2022-12-08T21:08:54.579Z,74.17
2022-12-08T21:11:21.434Z,74.19
2022-12-08T21:13:48.251Z,74.15
2022-12-08T21:16:16.050Z,74.15
2022-12-08T21:18:42.943Z,74.33
2022-12-08T21:21:17.979Z,74.26
2022-12-08T21:23:45.054Z,74.42
2022-12-08T22:13:42.065Z,74.27
2022-12-08T22:16:11.452Z,74.33
2022-12-08T22:18:38.689Z,74.20
2022-12-08T22:21:10.964Z,74.44
2022-12-08T22:23:38.041Z,74.33
2022-12-08T22:26:05.305Z,74.44
2022-12-08T22:28:42.969Z,74.37
2022-12-08T22:31:19.712Z,74.45
2022-12-08T22:33:48.891Z,74.47
2022-12-08T22:36:22.513Z,74.59
2022-12-08T22:38:50.447Z,74.52
2022-12-08T22:41:18.414Z,74.64
2022-12-08T22:43:45.943Z,74.79
2022-12-08T22:46:24.604Z,74.67
2022-12-08T22:48:52.326Z,74.67
2022-12-08T22:51:19.773Z,74.60
2022-12-08T22:53:47.424Z,74.66
2022-12-08T22:56:16.204Z,74.79
2022-12-08T22:58:44.502Z,74.56
2022-12-08T23:01:29.858Z,74.78
2022-12-08T23:03:58.435Z,74.46
2022-12-08T23:06:26.493Z,74.63
2022-12-08T23:08:54.726Z,74.64
2022-12-08T23:11:23.992Z,74.62
2022-12-08T23:13:50.864Z,74.75
2022-12-08T23:16:18.054Z,74.59
2022-12-08T23:18:46.292Z,74.57
2022-12-08T23:21:19.848Z,74.76
2022-12-08T23:23:47.251Z,74.89
2022-12-08T23:26:23.950Z,74.45
2022-12-08T23:28:51.184Z,74.74
2022-12-08T23:31:18.851Z,74.84
2022-12-08T23:33:46.148Z,74.60
2022-12-08T23:36:18.360Z,74.89
2022-12-08T23:38:45.545Z,74.76
2022-12-08T23:41:15.034Z,74.87
2022-12-08T23:43:46.864Z,74.84
2022-12-08T23:46:15.807Z,74.85
2022-12-08T23:48:42.810Z,74.79
2022-12-08T23:51:09.750Z,74.87
2022-12-08T23:53:36.820Z,74.71
2022-12-08T23:56:07.252Z,74.86
2022-12-08T23:58:34.778Z,74.89
